Time;durP1;ratioP1;P1;durP2;ratioP2;P2;SDS_P1;SDS_P2;PMS_P1;PMS_P2;Temp;Humidity;BMP_temperature;BMP_pressure;BME280_temperature;BME280_humidity;BME280_pressure;Samples;Min_cycle;Max_cycle;Signal;HPM_P1;HPM_P2
2024/02/11 00:02:12;;;;;;;36.17;15.65;;;-9.30;93.80;;;;;;5056457;28;20045;-79
2024/02/11 00:04:38;;;;;;;34.80;16.27;;;-9.30;93.90;;;;;;5072021;28;20051;-79
2024/02/11 00:07:06;;;;;;;33.63;15.82;;;-9.20;93.90;;;;;;5066698;28;20049;-76
2024/02/11 00:09:32;;;;;;;28.05;15.75;;;-9.20;93.90;;;;;;5058066;28;20083;-76
2024/02/11 00:11:58;;;;;;;30.00;17.33;;;-9.20;94.40;;;;;;5061577;28;20439;-78
2024/02/11 00:14:27;;;;;;;25.60;15.10;;;-9.20;94.30;;;;;;5073580;28;20478;-79
2024/02/11 00:16:59;;;;;;;24.95;16.15;;;-9.30;94.30;;;;;;5074087;28;20017;-77
2024/02/11 00:19:26;;;;;;;22.67;14.65;;;-9.30;94.30;;;;;;5056075;28;20047;-78
2024/02/11 00:21:52;;;;;;;27.50;15.80;;;-9.30;94.40;;;;;;5084927;28;20490;-77
2024/02/11 00:24:19;;;;;;;28.90;17.10;;;-9.30;94.50;;;;;;5057555;28;20055;-76
2024/02/11 00:26:45;;;;;;;24.50;14.95;;;-9.30;94.50;;;;;;5069831;28;20028;-76
2024/02/11 00:29:11;;;;;;;27.17;15.75;;;-9.30;94.40;;;;;;5059562;28;20470;-77
2024/02/11 00:31:38;;;;;;;28.10;14.15;;;-9.30;94.20;;;;;;5069688;28;20032;-81
2024/02/11 00:34:05;;;;;;;22.17;13.23;;;-9.30;94.00;;;;;;5075388;28;20023;-80
2024/02/11 00:36:31;;;;;;;;;;;-9.30;93.70;;;;;;5069394;28;20064;-79
2024/02/11 00:38:57;;;;;;;17.52;10.38;;;-9.30;93.70;;;;;;5070857;28;20362;-81
2024/02/11 00:41:23;;;;;;;23.73;13.93;;;-9.30;93.90;;;;;;5072882;28;20032;-81
2024/02/11 00:43:50;;;;;;;23.35;13.73;;;-9.30;94.00;;;;;;5067112;28;20428;-80
2024/02/11 00:46:16;;;;;;;21.48;13.57;;;-9.30;94.20;;;;;;5068384;28;20028;-80
2024/02/11 00:48:45;;;;;;;27.40;15.63;;;-9.30;94.20;;;;;;5069790;28;20021;-79
2024/02/11 00:51:12;;;;;;;20.40;13.20;;;-9.40;94.10;;;;;;5071950;28;20120;-79
2024/02/11 00:53:38;;;;;;;23.85;12.85;;;-9.40;94.20;;;;;;5071872;28;20020;-80
2024/02/11 00:56:04;;;;;;;26.50;12.45;;;-9.30;94.20;;;;;;5078852;28;20070;-80
2024/02/11 00:58:33;;;;;;;25.60;13.88;;;-9.40;94.10;;;;;;5066437;28;20043;-78
2024/02/11 01:00:59;;;;;;;21.33;13.30;;;-9.30;94.00;;;;;;5070945;28;20064;-81
2024/02/11 01:03:25;;;;;;;25.52;14.00;;;-9.30;93.90;;;;;;5072906;28;20025;-81
2024/02/11 01:05:52;;;;;;;29.00;14.40;;;-9.30;93.70;;;;;;5073520;28;20029;-80
2024/02/11 01:08:18;;;;;;;23.02;13.63;;;-9.30;93.70;;;;;;5070690;28;20067;-81
2024/02/11 01:10:44;;;;;;;20.70;12.95;;;-9.30;93.70;;;;;;5077314;28;20028;-80
2024/02/11 01:13:13;;;;;;;25.95;13.25;;;-9.30;93.60;;;;;;5078208;28;20528;-79
2024/02/11 01:15:39;;;;;;;22.63;15.05;;;-9.40;93.30;;;;;;5063257;28;20215;-80
2024/02/11 01:18:06;;;;;;;25.30;12.45;;;-9.40;93.20;;;;;;5070579;28;20036;-80
2024/02/11 01:20:32;;;;;;;22.08;14.07;;;-9.40;93.10;;;;;;5068089;28;20044;-81
2024/02/11 01:22:58;;;;;;;28.92;14.13;;;-9.50;93.10;;;;;;5073396;28;20499;-79
2024/02/11 01:25:24;;;;;;;25.88;16.25;;;-9.50;93.60;;;;;;5072892;28;20035;-80
2024/02/11 01:27:50;;;;;;;23.83;12.52;;;-9.50;93.60;;;;;;5068919;28;20116;-80
2024/02/11 01:30:20;;;;;;;26.90;15.20;;;-9.60;93.80;;;;;;5070012;28;20032;-80
2024/02/11 01:32:48;;;;;;;27.13;14.10;;;-9.60;94.00;;;;;;5087115;28;20127;-80
2024/02/11 01:35:14;;;;;;;26.30;15.15;;;-9.70;93.90;;;;;;5067272;28;20017;-80
2024/02/11 01:37:40;;;;;;;24.33;13.98;;;-9.70;93.90;;;;;;5067556;28;20035;-80
2024/02/11 01:40:11;;;;;;;23.90;13.23;;;-9.70;93.90;;;;;;5074457;28;20055;-80
2024/02/11 01:42:39;;;;;;;23.85;13.80;;;-9.80;93.70;;;;;;5073262;28;20036;-79
2024/02/11 01:45:07;;;;;;;25.27;13.02;;;-9.80;93.60;;;;;;5069868;28;20423;-81
2024/02/11 01:47:35;;;;;;;22.63;12.70;;;-9.80;93.70;;;;;;5064452;28;20035;-80
2024/02/11 01:50:07;;;;;;;34.33;16.20;;;-9.80;93.90;;;;;;5073560;28;20500;-81
2024/02/11 01:52:34;;;;;;;21.70;14.30;;;-9.80;94.00;;;;;;5073310;28;20016;-79
2024/02/11 01:55:00;;;;;;;18.25;9.88;;;-9.80;94.10;;;;;;5074868;28;20032;-78
2024/02/11 01:57:26;;;;;;;28.77;13.57;;;-9.80;94.10;;;;;;5074554;28;20485;-77
2024/02/11 01:59:52;;;;;;;22.65;13.85;;;-9.80;94.30;;;;;;5075044;28;20027;-78
2024/02/11 02:02:20;;;;;;;32.47;16.48;;;-9.90;94.50;;;;;;5071845;28;20036;-78
2024/02/11 02:04:48;;;;;;;22.13;14.93;;;-9.80;94.50;;;;;;5061985;28;20024;-80
2024/02/11 02:07:14;;;;;;;22.75;13.93;;;-9.90;94.40;;;;;;5069292;28;20056;-79
2024/02/11 02:09:40;;;;;;;29.17;13.98;;;-9.90;94.30;;;;;;5074377;28;20032;-80
2024/02/11 02:12:08;;;;;;;21.00;13.25;;;-9.80;94.40;;;;;;5075008;28;20031;-79
2024/02/11 02:14:34;;;;;;;24.08;12.25;;;-9.80;94.40;;;;;;5073817;28;20029;-79
2024/02/11 02:17:00;;;;;;;26.23;13.60;;;-9.80;94.50;;;;;;5073167;28;20031;-79
2024/02/11 02:19:27;;;;;;;28.90;16.80;;;-9.90;94.60;;;;;;5071148;28;20028;-81
2024/02/11 02:21:54;;;;;;;22.65;14.50;;;-9.90;94.60;;;;;;5071249;28;20036;-80
2024/02/11 02:24:20;;;;;;;17.58;10.93;;;-9.90;94.50;;;;;;5072224;28;20013;-79
2024/02/11 02:26:46;;;;;;;22.92;14.50;;;-9.90;94.50;;;;;;5072470;28;20025;-78
2024/02/11 02:29:12;;;;;;;21.67;13.57;;;-9.90;94.40;;;;;;5071419;28;20074;-80
2024/02/11 02:31:38;;;;;;;23.63;11.65;;;-9.80;94.40;;;;;;5072046;28;20394;-79
2024/02/11 02:34:04;;;;;;;26.67;12.30;;;-9.80;94.70;;;;;;5072807;28;20020;-78
2024/02/11 02:36:30;;;;;;;34.92;16.90;;;-9.80;94.40;;;;;;5065995;28;20037;-80
2024/02/11 02:38:56;;;;;;;20.63;12.77;;;-9.80;94.40;;;;;;5074070;28;20016;-78
2024/02/11 02:41:22;;;;;;;25.30;13.23;;;-9.80;94.30;;;;;;5073636;28;20435;-78
2024/02/11 02:43:48;;;;;;;31.38;14.80;;;-9.80;94.30;;;;;;5071065;28;20020;-81
2024/02/11 02:46:14;;;;;;;29.35;15.10;;;-9.80;94.40;;;;;;5072597;28;20024;-80
2024/02/11 02:48:40;;;;;;;26.50;13.63;;;-9.90;94.20;;;;;;5072172;28;20016;-79
2024/02/11 02:51:05;;;;;;;20.38;13.55;;;-9.90;94.10;;;;;;5072739;28;20017;-81
2024/02/11 02:53:31;;;;;;;22.90;14.02;;;-9.90;94.20;;;;;;5068451;28;20056;-79
2024/02/11 02:55:57;;;;;;;23.60;13.10;;;-9.90;94.20;;;;;;5066216;28;20032;-78
2024/02/11 02:58:23;;;;;;;29.23;13.75;;;-9.90;94.10;;;;;;5072806;28;20083;-80
2024/02/11 03:00:49;;;;;;;24.08;13.95;;;-9.90;94.10;;;;;;5072140;28;20021;-79
2024/02/11 03:03:17;;;;;;;26.47;13.90;;;-9.90;94.00;;;;;;5072942;28;20060;-79
2024/02/11 03:05:45;;;;;;;28.80;13.45;;;-9.80;94.10;;;;;;5072112;28;20253;-79
2024/02/11 03:08:12;;;;;;;22.05;12.68;;;-9.80;94.20;;;;;;5070549;28;20036;-80
2024/02/11 03:10:38;;;;;;;23.15;12.68;;;-9.80;94.30;;;;;;5070803;28;20102;-78
2024/02/11 03:13:04;;;;;;;26.33;14.15;;;-9.80;94.30;;;;;;5071753;28;20032;-79
2024/02/11 03:15:30;;;;;;;27.27;14.20;;;-9.80;94.20;;;;;;5072586;28;20028;-81
2024/02/11 03:17:56;;;;;;;22.85;11.73;;;-9.80;94.20;;;;;;5072036;28;20043;-79
2024/02/11 03:20:22;;;;;;;22.50;11.68;;;-9.80;94.20;;;;;;5072248;28;20017;-81
2024/02/11 03:22:48;;;;;;;24.77;13.20;;;-9.80;94.20;;;;;;5071957;28;20534;-79
2024/02/11 03:25:15;;;;;;;24.38;13.60;;;-9.80;94.20;;;;;;5072124;28;20015;-80
2024/02/11 03:27:41;;;;;;;23.88;12.77;;;-9.80;94.20;;;;;;5071799;28;20504;-79
2024/02/11 03:30:08;;;;;;;14.80;10.30;;;-9.80;94.10;;;;;;5071102;28;20016;-79
2024/02/11 03:32:37;;;;;;;18.63;12.15;;;-9.80;94.10;;;;;;5071840;28;20338;-80
2024/02/11 03:35:04;;;;;;;27.20;14.07;;;-9.80;93.90;;;;;;5072108;28;20017;-78
2024/02/11 03:37:34;;;;;;;27.95;16.52;;;-9.80;93.80;;;;;;5068919;28;20119;-80
2024/02/11 03:40:08;;;;;;;21.67;11.82;;;-9.80;93.70;;;;;;5063670;28;20385;-78
2024/02/11 03:42:35;;;;;;;24.10;14.23;;;-9.80;93.60;;;;;;5064274;28;20025;-79
2024/02/11 03:45:14;;;;;;;20.20;11.73;;;-9.80;93.50;;;;;;5074915;28;20020;-79
2024/02/11 03:47:40;;;;;;;24.85;14.43;;;-9.90;93.50;;;;;;5062693;28;20664;-78
2024/02/11 03:50:13;;;;;;;23.92;14.68;;;-9.80;93.70;;;;;;5073755;28;20115;-78
2024/02/11 03:52:40;;;;;;;22.73;13.27;;;-9.80;93.60;;;;;;5059827;28;20165;-78
2024/02/11 03:55:07;;;;;;;21.47;14.80;;;-9.90;93.40;;;;;;5067520;28;20111;-79
2024/02/11 03:57:33;;;;;;;25.90;16.05;;;-9.90;93.10;;;;;;5066317;28;20617;-78
2024/02/11 03:59:59;;;;;;;21.63;13.27;;;-10.00;92.90;;;;;;5065515;28;20024;-79
2024/02/11 04:02:24;;;;;;;25.40;13.60;;;-10.00;92.80;;;;;;5074562;28;20541;-78
2024/02/11 04:04:51;;;;;;;23.25;13.95;;;-10.10;92.80;;;;;;5074020;28;20085;-78
2024/02/11 04:07:20;;;;;;;23.52;14.18;;;-10.20;92.80;;;;;;5075242;28;20021;-78
2024/02/11 04:09:47;;;;;;;25.10;14.98;;;-10.30;92.80;;;;;;5074939;28;20052;-79
2024/02/11 04:12:15;;;;;;;27.58;17.67;;;-10.30;92.80;;;;;;5076223;28;20059;-78
2024/02/11 04:14:41;;;;;;;25.13;15.88;;;-10.40;93.20;;;;;;5073449;28;20489;-79
2024/02/11 04:17:13;;;;;;;28.48;16.25;;;-10.40;93.10;;;;;;5073351;28;20036;-79
2024/02/11 04:19:39;;;;;;;24.38;15.63;;;-10.50;93.00;;;;;;5074639;28;20024;-79
2024/02/11 04:22:07;;;;;;;27.70;16.73;;;-10.60;93.00;;;;;;5074896;28;20119;-79
2024/02/11 04:24:32;;;;;;;;;;;-10.60;93.10;;;;;;5073837;28;20033;-79
2024/02/11 04:26:58;;;;;;;25.43;14.13;;;-10.60;93.20;;;;;;5074851;28;19911;-80
2024/02/11 04:29:24;;;;;;;26.00;15.40;;;-10.70;93.00;;;;;;5075853;28;20073;-77
2024/02/11 04:31:53;;;;;;;29.67;16.98;;;-10.70;93.10;;;;;;5080332;28;20119;-78
2024/02/11 04:34:21;;;;;;;24.85;15.27;;;-10.60;93.30;;;;;;5091290;28;20059;-79
2024/02/11 04:36:48;;;;;;;32.95;16.35;;;-10.60;93.40;;;;;;5075616;28;20374;-79
2024/02/11 04:39:15;;;;;;;30.63;13.38;;;-10.50;93.50;;;;;;5069943;28;20537;-80
2024/02/11 04:41:41;;;;;;;26.17;15.10;;;-10.50;93.50;;;;;;5058833;28;20441;-81
2024/02/11 04:44:07;;;;;;;28.65;13.48;;;-10.50;93.60;;;;;;5069970;28;20047;-80
2024/02/11 04:46:34;;;;;;;29.08;16.90;;;-10.40;93.70;;;;;;5064986;28;20020;-79
2024/02/11 04:48:59;;;;;;;32.65;15.93;;;-10.40;94.00;;;;;;5074484;28;20377;-80
2024/02/11 04:51:28;;;;;;;29.33;14.75;;;-10.40;94.00;;;;;;5072906;28;20033;-77
2024/02/11 04:53:57;;;;;;;25.20;14.80;;;-10.40;94.10;;;;;;5073918;28;20420;-78
2024/02/11 04:56:25;;;;;;;25.85;14.63;;;-10.40;94.10;;;;;;5072490;28;20028;-79
2024/02/11 04:58:52;;;;;;;30.52;15.55;;;-10.40;94.10;;;;;;5064434;28;20397;-79
2024/02/11 05:01:18;;;;;;;;;;;-10.40;94.10;;;;;;5073610;28;20107;-78
2024/02/11 05:03:47;;;;;;;22.50;12.13;;;-10.40;94.10;;;;;;5074086;28;19904;-79
2024/02/11 05:06:18;;;;;;;19.75;12.50;;;-10.40;94.20;;;;;;5073214;28;20060;-79
2024/02/11 05:08:45;;;;;;;19.95;11.48;;;-10.40;94.20;;;;;;5074253;28;20072;-80
2024/02/11 05:11:11;;;;;;;26.88;15.15;;;-10.40;94.30;;;;;;5073992;28;20080;-81
2024/02/11 05:13:37;;;;;;;23.60;13.95;;;-10.40;94.30;;;;;;5072866;28;20496;-80
2024/02/11 05:16:05;;;;;;;35.85;15.02;;;-10.40;94.40;;;;;;5074285;28;20028;-80
2024/02/11 05:18:36;;;;;;;25.73;15.18;;;-10.40;94.40;;;;;;5075476;28;20473;-79
2024/02/11 05:21:02;;;;;;;31.20;15.65;;;-10.40;94.40;;;;;;5078305;28;20032;-78
2024/02/11 05:23:31;;;;;;;34.47;15.83;;;-10.30;94.40;;;;;;5079054;28;20025;-79
2024/02/11 05:25:59;;;;;;;35.28;18.98;;;-10.30;94.40;;;;;;5073066;28;20059;-79
2024/02/11 05:28:25;;;;;;;28.00;16.20;;;-10.30;94.40;;;;;;5074000;28;20322;-78
2024/02/11 05:30:53;;;;;;;33.05;17.17;;;-10.30;94.40;;;;;;5073492;28;20033;-79
2024/02/11 05:33:20;;;;;;;30.23;15.65;;;-10.30;94.30;;;;;;5073841;28;20474;-79
2024/02/11 05:35:55;;;;;;;;;;;-10.30;94.20;;;;;;5069936;28;20025;-83
2024/02/11 05:38:25;;;;;;;24.58;15.35;;;-10.30;94.20;;;;;;5079573;28;20281;-80
2024/02/11 05:40:56;;;;;;;22.23;14.30;;;-10.30;94.20;;;;;;5071316;28;20118;-80
2024/02/11 05:43:23;;;;;;;26.95;14.43;;;-10.20;94.30;;;;;;5068055;28;20020;-82
2024/02/11 05:45:49;;;;;;;30.30;15.60;;;-10.20;94.40;;;;;;5076257;28;20388;-82
2024/02/11 05:48:14;;;;;;;30.48;17.67;;;-10.20;94.40;;;;;;5060668;28;20486;-81
2024/02/11 05:50:41;;;;;;;26.33;13.80;;;-10.10;94.40;;;;;;5067255;28;20102;-83
2024/02/11 05:53:08;;;;;;;18.95;11.90;;;-10.10;94.30;;;;;;5063478;28;20389;-81
2024/02/11 05:55:34;;;;;;;26.38;16.63;;;-10.00;94.40;;;;;;5072313;28;20032;-82
2024/02/11 05:58:00;;;;;;;28.45;15.88;;;-9.90;94.40;;;;;;5073777;28;20095;-82
2024/02/11 06:00:34;;;;;;;29.10;15.90;;;-9.80;94.40;;;;;;5073758;28;20469;-84
2024/02/11 06:03:00;;;;;;;30.90;15.43;;;-9.70;94.50;;;;;;5072124;28;20432;-83
2024/02/11 06:05:26;;;;;;;30.77;16.98;;;-9.60;94.50;;;;;;5073677;28;20381;-81
2024/02/11 06:08:00;;;;;;;33.05;15.95;;;-9.50;94.40;;;;;;5072191;28;20111;-83
2024/02/11 06:10:29;;;;;;;28.58;16.33;;;-9.50;94.30;;;;;;5072569;28;20020;-81
2024/02/11 06:12:57;;;;;;;35.83;19.85;;;-9.40;94.20;;;;;;5073188;28;20032;-82
2024/02/11 06:15:24;;;;;;;31.85;17.65;;;-9.30;94.10;;;;;;5072386;28;20021;-81
2024/02/11 06:17:53;;;;;;;29.27;16.70;;;-9.20;94.10;;;;;;5071139;28;20020;-82
2024/02/11 06:20:19;;;;;;;28.10;16.42;;;-9.10;93.90;;;;;;5072413;28;20108;-80
2024/02/11 06:22:50;;;;;;;25.50;15.20;;;-9.10;93.80;;;;;;5072648;28;20039;-80
2024/02/11 06:25:16;;;;;;;27.05;15.82;;;-9.00;93.80;;;;;;5072067;28;20024;-81
2024/02/11 06:27:43;;;;;;;28.58;18.30;;;-8.90;93.70;;;;;;5073208;28;20147;-82
2024/02/11 06:30:19;;;;;;;32.42;16.50;;;-8.80;93.70;;;;;;5071120;28;20024;-82
2024/02/11 06:32:47;;;;;;;23.77;14.00;;;-8.80;93.70;;;;;;5072473;28;20489;-80
2024/02/11 06:35:14;;;;;;;27.92;15.48;;;-8.70;93.80;;;;;;5053722;28;20482;-80
2024/02/11 06:37:40;;;;;;;;;;;-8.70;93.70;;;;;;5065161;28;20350;-82
2024/02/11 06:40:10;;;;;;;18.98;11.43;;;-8.60;93.70;;;;;;5066003;28;20003;-82
2024/02/11 06:42:42;;;;;;;20.90;13.15;;;-8.50;93.60;;;;;;5072043;28;20122;-82
2024/02/11 06:45:12;;;;;;;19.83;11.90;;;-8.50;93.60;;;;;;5070195;28;20446;-81
2024/02/11 06:47:38;;;;;;;21.13;12.13;;;-8.40;93.60;;;;;;5071183;28;20025;-84
2024/02/11 06:50:09;;;;;;;21.43;13.40;;;-8.40;93.80;;;;;;5073077;28;20017;-81
2024/02/11 06:52:35;;;;;;;30.48;12.13;;;-8.40;93.80;;;;;;5072519;28;20024;-81
2024/02/11 06:55:05;;;;;;;20.58;12.98;;;-8.30;94.10;;;;;;5072816;28;20375;-83
2024/02/11 06:57:34;;;;;;;28.85;12.52;;;-8.30;94.00;;;;;;5049003;28;20481;-83
2024/02/11 07:00:00;;;;;;;23.88;12.43;;;-8.20;94.10;;;;;;5069996;28;20115;-81
2024/02/11 07:02:27;;;;;;;18.15;11.55;;;-8.20;94.10;;;;;;5070526;28;20159;-81
2024/02/11 07:04:55;;;;;;;20.05;10.57;;;-8.00;94.10;;;;;;5074149;28;20521;-80
2024/02/11 07:07:22;;;;;;;18.73;10.48;;;-8.00;94.20;;;;;;5069799;28;20435;-80
2024/02/11 07:09:48;;;;;;;18.38;11.60;;;-7.90;94.20;;;;;;5074610;28;20041;-81
2024/02/11 07:12:16;;;;;;;16.70;10.83;;;-7.90;94.10;;;;;;5076897;28;20020;-82
2024/02/11 07:14:45;;;;;;;16.48;12.80;;;-7.80;94.30;;;;;;5078215;28;20386;-81
2024/02/11 07:17:14;;;;;;;21.52;11.75;;;-7.80;94.30;;;;;;5076390;28;20070;-81
2024/02/11 07:19:41;;;;;;;16.73;10.10;;;-7.90;94.40;;;;;;5076950;28;20327;-82
2024/02/11 07:22:08;;;;;;;16.63;10.47;;;-7.90;94.70;;;;;;5080637;28;20033;-79
2024/02/11 07:24:37;;;;;;;18.05;11.68;;;-7.90;94.90;;;;;;5077278;28;20099;-81
2024/02/11 07:27:06;;;;;;;16.15;12.18;;;-7.80;95.00;;;;;;5068945;28;20074;-82
2024/02/11 07:29:33;;;;;;;20.92;11.18;;;-7.60;95.00;;;;;;5076755;28;20020;-82
2024/02/11 07:31:59;;;;;;;17.33;9.75;;;-7.50;94.90;;;;;;5075188;28;20335;-82
2024/02/11 07:34:27;;;;;;;19.13;9.45;;;-7.30;94.80;;;;;;5075862;28;20024;-81
2024/02/11 07:36:52;;;;;;;22.55;10.65;;;-7.10;95.00;;;;;;5065745;28;20016;-80
2024/02/11 07:39:18;;;;;;;21.00;11.38;;;-7.00;94.90;;;;;;5076356;28;20082;-82
2024/02/11 07:41:45;;;;;;;20.88;13.98;;;-6.90;94.60;;;;;;5072429;28;20036;-81
2024/02/11 07:44:14;;;;;;;17.23;11.00;;;-6.70;94.60;;;;;;5070574;28;20107;-82
2024/02/11 07:46:42;;;;;;;18.02;11.02;;;-6.60;94.50;;;;;;5074834;28;20067;-81
2024/02/11 07:49:10;;;;;;;20.60;12.43;;;-6.50;94.50;;;;;;5074624;28;20023;-81
2024/02/11 07:51:37;;;;;;;17.73;11.30;;;-6.50;94.80;;;;;;5075425;28;20028;-80
2024/02/11 07:54:03;;;;;;;16.95;10.70;;;-6.60;94.00;;;;;;5065829;28;20021;-84
2024/02/11 07:56:29;;;;;;;20.88;11.27;;;-6.50;93.90;;;;;;5067003;28;20033;-82
2024/02/11 07:58:56;;;;;;;19.63;11.30;;;-6.50;94.40;;;;;;5060318;28;20028;-84
2024/02/11 08:01:23;;;;;;;18.48;11.10;;;-6.50;94.50;;;;;;5064842;28;20024;-85
2024/02/11 08:03:49;;;;;;;22.38;11.60;;;-6.50;94.60;;;;;;5064797;28;20025;-83
2024/02/11 08:06:14;;;;;;;21.88;10.88;;;-6.50;94.70;;;;;;5075188;28;20077;-84
2024/02/11 08:08:40;;;;;;;20.58;10.52;;;-6.50;94.30;;;;;;5075345;28;20048;-83
2024/02/11 08:11:06;;;;;;;18.75;11.23;;;-6.40;94.20;;;;;;5074959;28;20060;-84
2024/02/11 08:13:35;;;;;;;16.83;10.10;;;-6.40;94.20;;;;;;5076151;28;20016;-85
2024/02/11 08:16:03;;;;;;;15.02;8.90;;;-6.30;94.40;;;;;;5076217;28;20035;-83
2024/02/11 08:18:29;;;;;;;17.55;9.88;;;-6.30;94.60;;;;;;5078959;28;20028;-83
2024/02/11 08:20:57;;;;;;;16.35;10.82;;;-6.30;94.80;;;;;;5075193;28;20052;-83
2024/02/11 08:23:24;;;;;;;16.02;10.13;;;-6.40;94.90;;;;;;5070364;28;20129;-84
2024/02/11 08:25:50;;;;;;;21.35;10.15;;;-6.40;94.90;;;;;;5066289;28;20025;-82
2024/02/11 08:28:17;;;;;;;19.38;11.68;;;-6.40;95.00;;;;;;5074669;28;20500;-83
2024/02/11 08:30:43;;;;;;;17.60;10.25;;;-6.40;94.80;;;;;;5075324;28;20032;-83
2024/02/11 08:33:09;;;;;;;21.00;11.18;;;-6.30;94.70;;;;;;5075432;28;20025;-83
2024/02/11 08:35:38;;;;;;;18.73;11.57;;;-6.20;94.70;;;;;;5073289;28;20094;-83
2024/02/11 08:38:04;;;;;;;19.67;11.65;;;-6.20;95.00;;;;;;5079109;28;20029;-83
2024/02/11 08:40:33;;;;;;;22.67;10.73;;;-6.10;95.30;;;;;;5077567;28;20020;-83
2024/02/11 08:43:01;;;;;;;24.02;12.02;;;-6.10;95.20;;;;;;5088587;28;20036;-83
2024/02/11 08:45:27;;;;;;;19.25;12.55;;;-6.00;95.10;;;;;;5084772;28;20028;-83
2024/02/11 08:47:53;;;;;;;16.90;11.40;;;-5.80;94.80;;;;;;5078485;28;20028;-84
2024/02/11 08:50:19;;;;;;;20.45;12.82;;;-5.70;94.60;;;;;;5078654;28;20028;-83
2024/02/11 08:52:45;;;;;;;21.98;12.52;;;-5.50;94.50;;;;;;5078439;28;20040;-83
2024/02/11 08:55:11;;;;;;;19.17;11.48;;;-5.50;94.60;;;;;;5078392;28;20108;-83
2024/02/11 08:57:37;;;;;;;20.47;10.03;;;-5.40;94.60;;;;;;5074172;28;20033;-82
2024/02/11 09:00:08;;;;;;;22.50;13.23;;;-5.30;94.70;;;;;;5074594;28;20111;-83
2024/02/11 09:02:34;;;;;;;21.38;13.13;;;-5.20;94.50;;;;;;5069440;28;20039;-84
2024/02/11 09:05:00;;;;;;;17.33;11.18;;;-5.10;94.10;;;;;;5072654;28;20017;-84
2024/02/11 09:07:25;;;;;;;18.42;10.98;;;-5.00;94.00;;;;;;5075476;28;20119;-84
2024/02/11 09:09:51;;;;;;;20.42;11.05;;;-5.00;94.00;;;;;;5073320;28;20447;-84
2024/02/11 09:12:17;;;;;;;17.15;11.27;;;-4.90;94.60;;;;;;5068243;28;20142;-84
2024/02/11 09:14:43;;;;;;;20.63;12.45;;;-4.90;94.90;;;;;;5071498;28;20706;-83
2024/02/11 09:17:11;;;;;;;18.80;14.18;;;-5.00;94.70;;;;;;5068172;28;20056;-83
2024/02/11 09:19:37;;;;;;;21.38;12.18;;;-4.90;94.40;;;;;;5073106;28;20023;-83
2024/02/11 09:22:05;;;;;;;18.58;11.10;;;-4.80;93.30;;;;;;5074786;28;20029;-83
2024/02/11 09:24:33;;;;;;;16.60;11.95;;;-4.70;93.10;;;;;;5071131;28;20029;-84
2024/02/11 09:26:59;;;;;;;20.25;12.82;;;-4.60;93.10;;;;;;5075083;28;20024;-87
2024/02/11 09:29:26;;;;;;;20.25;12.00;;;-4.50;92.70;;;;;;5070452;28;20033;-83
2024/02/11 09:31:54;;;;;;;19.10;10.77;;;-4.50;92.60;;;;;;5074502;28;20497;-83
2024/02/11 09:34:22;;;;;;;20.98;11.90;;;-4.30;92.90;;;;;;5063830;28;20082;-83
2024/02/11 09:36:48;;;;;;;17.38;11.38;;;-4.10;93.10;;;;;;5062992;28;20032;-84
2024/02/11 09:39:14;;;;;;;14.93;10.48;;;-3.80;93.10;;;;;;5062987;28;20020;-83
2024/02/11 09:41:40;;;;;;;17.77;11.38;;;-3.40;93.40;;;;;;5061121;28;20078;-81
2024/02/11 09:44:22;;;;;;;21.83;10.77;;;-2.80;94.00;;;;;;5065193;28;20032;-83
2024/02/11 09:46:51;;;;;;;17.95;11.70;;;-1.90;93.10;;;;;;5073897;28;20232;-83
2024/02/11 09:49:20;;;;;;;19.15;9.52;;;-1.10;92.40;;;;;;5068118;28;20024;-85
2024/02/11 09:51:46;;;;;;;20.30;12.38;;;-0.40;92.40;;;;;;5075196;28;20020;-87
2024/02/11 09:54:13;;;;;;;21.52;12.82;;;-0.20;90.50;;;;;;5077485;28;20070;-87
2024/02/11 09:56:41;;;;;;;24.35;13.98;;;0.00;86.20;;;;;;5074221;28;20105;-85
2024/02/11 09:59:09;;;;;;;19.45;12.50;;;0.20;85.80;;;;;;5076322;28;20052;-86
2024/02/11 10:01:38;;;;;;;20.15;12.93;;;0.30;82.60;;;;;;5074076;28;20079;-85
2024/02/11 10:04:06;;;;;;;19.58;13.88;;;0.20;82.10;;;;;;5073767;28;20032;-81
2024/02/11 10:06:37;;;;;;;19.20;12.18;;;0.20;80.80;;;;;;5070090;28;20021;-82
2024/02/11 10:09:05;;;;;;;15.25;11.40;;;0.10;80.90;;;;;;5066543;28;20066;-82
2024/02/11 10:11:31;;;;;;;18.02;12.32;;;0.30;83.00;;;;;;5060232;28;20414;-83
2024/02/11 10:13:59;;;;;;;20.23;11.40;;;0.60;83.50;;;;;;5069108;28;20055;-85
2024/02/11 10:16:31;;;;;;;21.25;13.00;;;0.80;84.20;;;;;;5068614;28;20036;-85
2024/02/11 10:18:58;;;;;;;22.20;11.73;;;0.90;82.50;;;;;;5064649;28;20488;-83
2024/02/11 10:21:25;;;;;;;16.90;9.80;;;;;;;;;;5072054;28;20044;-87
2024/02/11 10:23:51;;;;;;;17.80;10.57;;;;;;;;;;5073641;28;20021;-87
2024/02/11 10:26:17;;;;;;;16.90;12.13;;;;;;;;;;5077067;28;20359;-87
2024/02/11 10:28:44;;;;;;;19.38;12.20;;;;;;;;;;5076026;28;20025;-88
2024/02/11 10:31:10;;;;;;;19.27;13.73;;;;;;;;;;5080581;28;20030;-89
2024/02/11 10:33:37;;;;;;;20.27;12.85;;;;;;;;;;5085217;28;20028;-88
2024/02/11 10:36:04;;;;;;;17.43;13.83;;;;;;;;;;5093329;28;20012;-87
2024/02/11 10:38:34;;;;;;;25.85;14.80;;;;;;;;;;5079905;28;20024;-86
2024/02/11 10:41:01;;;;;;;18.65;12.95;;;;;;;;;;5110302;28;20039;-86
2024/02/11 10:43:32;;;;;;;16.77;12.00;;;;;;;;;;5097764;28;20032;-85
2024/02/11 10:45:58;;;;;;;21.98;12.38;;;;;;;;;;5071066;28;20059;-84
2024/02/11 10:48:24;;;;;;;21.73;12.70;;;;;;;;;;5073152;28;20032;-85
2024/02/11 10:51:08;;;;;;;18.67;12.23;;;;;;;;;;5072345;28;20119;-82
2024/02/11 10:53:36;;;;;;;20.98;13.43;;;;;;;;;;5072323;28;20080;-86
2024/02/11 10:56:04;;;;;;;18.20;13.45;;;;;;;;;;5067599;28;20063;-84
2024/02/11 10:58:33;;;;;;;16.75;12.10;;;;;;;;;;5071174;28;20033;-82
2024/02/11 11:01:01;;;;;;;16.70;11.93;;;;;;;;;;5070783;28;20035;-81
2024/02/11 11:03:28;;;;;;;21.58;12.95;;;;;;;;;;5065764;28;20036;-84
2024/02/11 11:05:57;;;;;;;21.02;10.75;;;;;;;;;;5071661;28;20029;-81
2024/02/11 11:08:23;;;;;;;21.13;12.98;;;;;;;;;;5061227;28;20482;-83
2024/02/11 11:10:49;;;;;;;19.70;12.77;;;;;;;;;;5071346;28;20072;-83
2024/02/11 11:13:16;;;;;;;25.08;13.10;;;;;;;;;;5075019;28;20021;-83
2024/02/11 11:15:43;;;;;;;22.07;12.20;;;;;;;;;;5074006;28;20021;-83
2024/02/11 11:18:11;;;;;;;25.23;12.88;;;;;;;;;;5059331;28;20676;-81
2024/02/11 11:20:37;;;;;;;21.48;13.27;;;;;;;;;;5056383;28;20091;-83
2024/02/11 11:23:06;;;;;;;21.55;12.40;;;;;;;;;;5070095;28;20032;-84
2024/02/11 11:25:32;;;;;;;22.88;13.05;;;;;;;;;;5062300;28;20120;-81
2024/02/11 11:28:10;;;;;;;20.50;12.35;;;;;;;;;;5068386;28;20506;-81
2024/02/11 11:30:37;;;;;;;17.70;11.10;;;;;;;;;;5071607;28;20032;-81
2024/02/11 11:33:09;;;;;;;23.52;12.50;;;;;;;;;;5072137;28;20035;-82
2024/02/11 11:35:35;;;;;;;18.25;10.68;;;;;;;;;;5070924;28;20020;-83
2024/02/11 11:38:05;;;;;;;18.98;10.73;;;;;;;;;;5061640;28;20030;-81
2024/02/11 11:40:35;;;;;;;18.13;11.50;;;;;;;;;;5070055;28;20082;-84
2024/02/11 11:43:12;;;;;;;22.27;11.77;;;;;;;;;;5060029;28;20075;-85
2024/02/11 11:45:38;;;;;;;22.00;12.10;;;;;;;;;;5072308;28;20070;-83
2024/02/11 11:48:04;;;;;;;24.50;11.27;;;;;;;;;;5073991;28;20260;-84
2024/02/11 11:50:31;;;;;;;19.33;11.52;;;;;;;;;;5080218;28;20021;-85
2024/02/11 11:53:00;;;;;;;17.17;10.70;;;;;;;;;;5060962;28;20025;-86
2024/02/11 11:55:27;;;;;;;15.35;10.10;;;;;;;;;;5067938;28;20077;-81
2024/02/11 11:58:01;;;;;;;15.80;9.75;;;;;;;;;;5067471;28;20036;-84
2024/02/11 12:00:27;;;;;;;14.80;10.23;;;;;;;;;;5069363;28;20043;-83
2024/02/11 12:02:55;;;;;;;17.42;11.60;;;;;;;;;;5074294;28;20031;-85
2024/02/11 12:05:22;;;;;;;19.08;10.85;;;;;;;;;;5075925;28;20044;-82
2024/02/11 12:07:48;;;;;;;23.38;11.90;;;;;;;;;;5066735;28;20036;-84
2024/02/11 12:10:14;;;;;;;16.53;11.03;;;;;;;;;;5075591;28;20020;-86
2024/02/11 12:12:41;;;;;;;18.85;10.73;;;;;;;;;;5068907;28;20048;-87
2024/02/11 12:15:07;;;;;;;13.70;8.98;;;;;;;;;;5068932;28;20035;-84
2024/02/11 12:17:35;;;;;;;17.35;10.50;;;;;;;;;;5078736;28;20098;-83
2024/02/11 12:20:02;;;;;;;16.33;10.43;;;;;;;;;;5087485;28;20024;-84
2024/02/11 12:22:28;;;;;;;19.20;10.43;;;;;;;;;;5075538;28;20862;-87
2024/02/11 12:24:54;;;;;;;16.55;10.88;;;;;;;;;;5046431;28;20167;-86
2024/02/11 12:27:20;;;;;;;19.70;10.02;;;;;;;;;;5054214;28;20045;-86
2024/02/11 12:29:54;;;;;;;18.52;11.10;;;;;;;;;;5052169;28;20061;-84
2024/02/11 12:32:22;;;;;;;15.75;10.77;;;;;;;;;;5041427;28;20375;-84
2024/02/11 12:34:47;;;;;;;;;;;;;;;;;;5057876;28;20033;-81
2024/02/11 12:37:15;;;;;;;19.90;10.98;;;;;;;;;;5055913;28;19909;-85
2024/02/11 12:39:41;;;;;;;14.70;9.82;;;;;;;;;;5054427;28;20243;-84
2024/02/11 12:42:07;;;;;;;19.27;12.03;;;;;;;;;;5052812;28;20041;-85
2024/02/11 12:44:34;;;;;;;20.30;11.30;;;;;;;;;;5062046;28;20124;-85
2024/02/11 12:47:02;;;;;;;15.95;10.98;;;;;;;;;;5055465;28;20036;-86
2024/02/11 12:49:28;;;;;;;15.30;11.68;;;;;;;;;;5049791;28;20025;-86